Time;durP1;ratioP1;P1;durP2;ratioP2;P2;SDS_P1;SDS_P2;PMS_P1;PMS_P2;Temp;Humidity;BMP_temperature;BMP_pressure;BME280_temperature;BME280_humidity;BME280_pressure;Samples;Min_cycle;Max_cycle;Signal;HPM_P1;HPM_P2
2021/01/29 00:00:43;;;;;;;2.35;0.98;;;;;;;7.93;86.24;97859.13;5092979;28;20052;-80
2021/01/29 00:03:17;;;;;;;3.10;1.05;;;;;;;7.98;86.50;97868.31;5093588;28;20110;-80
2021/01/29 00:05:54;;;;;;;1.20;0.77;;;;;;;8.07;85.83;97860.00;5093087;28;20052;-80
2021/01/29 00:08:22;;;;;;;1.13;0.80;;;;;;;8.11;85.56;97861.28;5092828;28;20079;-81
2021/01/29 00:10:48;;;;;;;1.48;0.60;;;;;;;8.00;85.85;97835.63;5093433;28;20087;-81
2021/01/29 00:13:15;;;;;;;1.20;0.75;;;;;;;8.05;86.01;97856.69;5093774;28;20404;-80
2021/01/29 00:15:42;;;;;;;1.00;0.57;;;;;;;7.93;86.35;97829.34;5092643;28;20040;-81
2021/01/29 00:18:11;;;;;;;1.85;0.63;;;;;;;8.02;86.49;97847.09;5092352;28;20052;-81
2021/01/29 00:20:37;;;;;;;0.55;0.50;;;;;;;8.05;86.55;97845.84;5093414;28;20056;-81
2021/01/29 00:23:06;;;;;;;0.98;0.55;;;;;;;8.08;86.04;97843.56;5092733;28;20102;-80
2021/01/29 00:25:44;;;;;;;2.17;0.88;;;;;;;8.07;86.33;97830.25;5074582;28;20052;-81
2021/01/29 00:28:12;;;;;;;3.58;0.70;;;;;;;8.07;86.15;97824.81;5089325;28;20048;-81
2021/01/29 00:30:39;;;;;;;1.33;0.75;;;;;;;7.95;86.06;97806.47;5093544;28;20048;-80
2021/01/29 00:33:08;;;;;;;0.90;0.60;;;;;;;7.96;86.22;97793.75;5092253;28;20048;-80
2021/01/29 00:35:36;;;;;;;1.90;0.63;;;;;;;8.05;86.00;97802.56;5091882;28;20055;-80
2021/01/29 00:38:04;;;;;;;1.70;0.70;;;;;;;7.96;85.90;97782.94;5091960;28;20128;-81
2021/01/29 00:40:30;;;;;;;1.15;0.47;;;;;;;8.04;86.21;97796.31;5093243;28;20044;-80
2021/01/29 00:42:57;;;;;;;0.90;0.55;;;;;;;7.99;86.45;97793.38;5092673;28;20064;-80
2021/01/29 00:45:29;;;;;;;0.82;0.40;;;;;;;7.98;86.68;97795.25;5092588;28;20074;-81
2021/01/29 00:47:55;;;;;;;1.38;0.43;;;;;;;7.90;86.09;97772.94;5093243;28;20092;-80
2021/01/29 00:50:22;;;;;;;3.53;0.70;;;;;;;7.92;86.48;97787.13;5093040;28;20054;-80
2021/01/29 00:52:50;;;;;;;1.40;0.68;;;;;;;7.95;86.58;97779.41;5086600;28;20052;-80
2021/01/29 00:55:19;;;;;;;0.45;0.45;;;;;;;7.88;86.27;97751.47;5095496;28;20052;-81
2021/01/29 00:57:45;;;;;;;1.58;0.50;;;;;;;8.01;86.12;97766.09;5097461;28;20106;-80
2021/01/29 01:00:14;;;;;;;5.68;0.60;;;;;;;8.06;86.25;97772.56;5092061;28;20052;-80
2021/01/29 01:02:40;;;;;;;1.77;0.70;;;;;;;8.08;85.96;97764.25;5088997;28;20044;-80
2021/01/29 01:05:07;;;;;;;3.90;0.82;;;;;;;7.96;85.95;97754.03;5096798;28;20052;-80
2021/01/29 01:07:34;;;;;;;2.15;0.60;;;;;;;7.94;86.04;97747.16;5091835;28;20048;-80
2021/01/29 01:10:01;;;;;;;0.85;0.60;;;;;;;8.11;85.79;97759.28;5097461;28;20123;-80
2021/01/29 01:12:27;;;;;;;1.98;0.52;;;;;;;7.94;85.62;97730.91;5096826;28;20056;-81
2021/01/29 01:14:54;;;;;;;0.82;0.38;;;;;;;8.05;85.08;97749.25;5094939;28;20044;-80
2021/01/29 01:17:20;;;;;;;0.75;0.47;;;;;;;7.88;84.99;97729.00;5096765;28;20070;-81
2021/01/29 01:19:47;;;;;;;2.63;1.17;;;;;;;8.01;84.93;97750.72;5096096;28;20059;-80
2021/01/29 01:22:13;;;;;;;3.42;0.70;;;;;;;7.96;85.50;97728.81;5096108;28;20040;-80
2021/01/29 01:24:40;;;;;;;1.50;0.70;;;;;;;7.75;86.63;97713.56;5076117;28;20102;-80
2021/01/29 01:27:08;;;;;;;0.95;0.73;;;;;;;7.67;86.95;97708.34;5076299;28;20055;-81
2021/01/29 01:29:35;;;;;;;2.20;0.85;;;;;;;7.75;87.20;97722.53;5079998;28;20488;-80
2021/01/29 01:32:05;;;;;;;0.80;0.63;;;;;;;7.87;87.42;97728.16;5096115;28;20040;-81
2021/01/29 01:34:32;;;;;;;1.05;0.70;;;;;;;7.75;87.80;97700.03;5080588;28;20055;-80
2021/01/29 01:36:59;;;;;;;1.20;0.70;;;;;;;7.83;87.55;97718.81;5092775;28;20044;-81
2021/01/29 01:39:25;;;;;;;0.85;0.73;;;;;;;7.81;87.37;97712.75;5096396;28;20447;-80
2021/01/29 01:41:52;;;;;;;1.00;0.85;;;;;;;7.60;88.64;97689.34;5096337;28;20052;-80
2021/01/29 01:44:27;;;;;;;0.95;0.52;;;;;;;7.51;89.00;97668.94;5095533;28;20138;-80
2021/01/29 01:46:55;;;;;;;4.43;0.90;;;;;;;7.54;89.65;97679.34;5096497;28;20055;-81
2021/01/29 01:49:24;;;;;;;1.27;0.70;;;;;;;7.60;89.44;97686.66;5095843;28;20043;-80
2021/01/29 01:51:55;;;;;;;3.65;0.73;;;;;;;7.59;89.84;97687.72;5095926;28;20055;-80
2021/01/29 01:54:33;;;;;;;0.40;0.40;;;;;;;7.51;89.26;97668.94;5088098;28;20052;-80
2021/01/29 01:57:01;;;;;;;4.80;0.70;;;;;;;7.42;90.12;97660.16;5085754;28;20044;-80
2021/01/29 01:59:34;;;;;;;2.35;0.60;;;;;;;7.48;90.16;97667.47;5075909;28;20045;-80
2021/01/29 02:02:19;;;;;;;2.30;0.60;;;;;;;7.40;90.79;97652.25;5116152;28;20047;-80
2021/01/29 02:04:47;;;;;;;6.15;1.00;;;;;;;7.50;91.12;97656.44;5101718;28;20442;-80
2021/01/29 02:07:27;;;;;;;3.90;0.80;;;;;;;7.30;91.48;97632.03;5095466;28;20047;-80
2021/01/29 02:09:56;;;;;;;0.75;0.52;;;;;;;7.43;91.11;97646.44;5095700;28;20048;-80
2021/01/29 02:12:22;;;;;;;1.17;0.75;;;;;;;7.34;91.57;97644.13;5093779;28;20109;-80
2021/01/29 02:14:49;;;;;;;2.78;0.50;;;;;;;7.37;91.65;97631.03;5088338;28;20051;-80
2021/01/29 02:17:33;;;;;;;0.60;0.57;;;;;;;7.38;91.53;97642.69;5095740;28;20040;-80
2021/01/29 02:20:44;;;;;;;0.68;0.50;;;;;;;7.43;91.95;97637.50;5094984;28;20059;-80
2021/01/29 02:23:46;;;;;;;1.02;0.70;;;;;;;7.41;91.86;97624.19;5089844;28;20097;-80
2021/01/29 02:27:03;;;;;;;0.40;0.40;;;;;;;7.30;92.15;97611.28;5095024;28;20048;-80
2021/01/29 02:29:53;;;;;;;1.40;0.60;;;;;;;7.16;92.39;97590.63;5093310;28;20081;-80
2021/01/29 02:32:54;;;;;;;0.60;0.60;;;;;;;7.32;92.62;97603.78;5094037;28;20051;-80
2021/01/29 02:35:54;;;;;;;0.68;0.68;;;;;;;7.25;92.83;97590.22;5087577;28;20048;-80
2021/01/29 02:38:52;;;;;;;1.02;0.63;;;;;;;7.21;92.59;97578.16;5086286;28;20051;-80
2021/01/29 02:41:31;;;;;;;1.38;0.80;;;;;;;7.32;92.96;97592.97;5086954;28;20135;-80
2021/01/29 02:44:12;;;;;;;1.95;0.70;;;;;;;7.16;92.79;97574.41;5085704;28;20044;-80
2021/01/29 02:46:51;;;;;;;0.68;0.68;;;;;;;7.24;93.04;97576.91;5094508;28;20541;-80
2021/01/29 02:49:26;;;;;;;1.15;0.90;;;;;;;7.34;93.00;97565.72;5093585;28;20066;-80
2021/01/29 02:51:59;;;;;;;5.43;1.00;;;;;;;7.25;92.96;97557.78;5094596;28;20113;-79
2021/01/29 02:54:35;;;;;;;1.42;0.90;;;;;;;7.31;92.90;97552.63;5089524;28;20083;-80
2021/01/29 02:57:06;;;;;;;1.63;0.85;;;;;;;7.23;92.47;97521.22;5094097;28;20491;-80
2021/01/29 02:59:36;;;;;;;1.10;0.90;;;;;;;7.17;92.68;97522.03;5094393;28;20052;-80
2021/01/29 03:02:04;;;;;;;;;;;;;;;7.24;92.80;97525.56;5075072;28;20052;-80
2021/01/29 03:04:35;;;;;;;1.20;0.90;;;;;;;7.17;92.82;97516.63;5084540;28;19969;-79
2021/01/29 03:07:06;;;;;;;2.35;1.00;;;;;;;7.19;92.77;97495.63;5093539;28;20131;-80
2021/01/29 03:09:40;;;;;;;1.10;1.00;;;;;;;7.16;92.65;97493.31;5094664;28;20097;-79
2021/01/29 03:12:11;;;;;;;0.85;0.85;;;;;;;7.13;92.87;97501.84;5094363;28;20051;-79
2021/01/29 03:14:44;;;;;;;1.17;0.90;;;;;;;7.23;92.63;97495.00;5094222;28;20404;-80
2021/01/29 03:17:53;;;;;;;4.40;1.00;;;;;;;7.30;92.62;97511.25;5094886;28;20044;-80
2021/01/29 03:20:24;;;;;;;4.35;1.15;;;;;;;7.20;92.41;97481.91;5093792;28;20051;-80
2021/01/29 03:22:56;;;;;;;1.30;1.13;;;;;;;7.28;92.36;97493.56;5077569;28;20040;-79
2021/01/29 03:25:27;;;;;;;4.30;1.08;;;;;;;7.36;92.56;97509.56;5081056;28;20140;-79
2021/01/29 03:27:57;;;;;;;1.10;0.90;;;;;;;7.09;92.41;97480.63;5092942;28;20048;-79
2021/01/29 03:30:27;;;;;;;1.40;0.98;;;;;;;7.13;92.45;97469.41;5094260;28;20052;-80
2021/01/29 03:32:56;;;;;;;1.15;0.90;;;;;;;7.30;92.50;97468.00;5093871;28;20899;-79
2021/01/29 03:35:27;;;;;;;1.67;1.00;;;;;;;7.43;92.02;97478.81;5094194;28;20400;-79
2021/01/29 03:38:00;;;;;;;1.63;0.77;;;;;;;7.49;91.90;97479.03;5092939;28;20051;-80
2021/01/29 03:40:28;;;;;;;0.80;0.80;;;;;;;7.37;92.05;97473.41;5094057;28;20048;-79
2021/01/29 03:43:06;;;;;;;0.90;0.70;;;;;;;7.25;92.01;97452.38;5093825;28;20052;-80
2021/01/29 03:45:43;;;;;;;1.70;0.80;;;;;;;7.32;91.93;97456.97;5093121;28;20048;-79
2021/01/29 03:48:21;;;;;;;0.82;0.80;;;;;;;7.35;91.60;97446.56;5093668;28;20484;-80
2021/01/29 03:50:51;;;;;;;3.50;0.70;;;;;;;7.24;91.95;97439.91;5073264;28;20044;-79
2021/01/29 03:53:30;;;;;;;1.23;0.70;;;;;;;7.36;92.19;97450.09;5089750;28;20397;-79
2021/01/29 03:56:06;;;;;;;1.98;0.80;;;;;;;7.37;91.55;97446.38;5093692;28;20094;-80
2021/01/29 03:58:38;;;;;;;0.60;0.60;;;;;;;7.35;91.66;97443.88;5093952;28;20044;-80
2021/01/29 04:01:33;;;;;;;1.27;0.63;;;;;;;7.38;92.17;97439.94;5089381;28;20048;-80
2021/01/29 04:04:04;;;;;;;2.17;0.80;;;;;;;7.31;91.99;97428.28;5093842;28;20124;-80
2021/01/29 04:06:38;;;;;;;0.88;0.70;;;;;;;7.32;91.85;97429.94;5094021;28;20055;-80
2021/01/29 04:09:12;;;;;;;0.68;0.68;;;;;;;7.26;91.46;97405.38;5092680;28;20060;-80
2021/01/29 04:11:45;;;;;;;1.00;0.70;;;;;;;7.31;91.54;97412.06;5094022;28;20074;-81
2021/01/29 04:14:19;;;;;;;1.60;0.90;;;;;;;7.28;91.28;97409.78;5093669;28;20040;-80
2021/01/29 04:16:47;;;;;;;4.28;0.65;;;;;;;7.26;91.21;97415.38;5092791;28;20047;-80
2021/01/29 04:19:17;;;;;;;0.75;0.70;;;;;;;7.30;91.48;97404.97;5093333;28;20052;-80
2021/01/29 04:21:51;;;;;;;1.63;0.80;;;;;;;7.40;91.17;97424.31;5092907;28;20465;-81
2021/01/29 04:24:22;;;;;;;0.63;0.47;;;;;;;7.24;91.59;97385.00;5092686;28;20044;-81
2021/01/29 04:26:53;;;;;;;3.25;0.98;;;;;;;7.19;91.60;97369.41;5093848;28;20377;-80
2021/01/29 04:29:24;;;;;;;4.38;0.60;;;;;;;7.32;91.39;97375.88;5093496;28;20458;-80
2021/01/29 04:31:56;;;;;;;1.05;0.45;;;;;;;7.34;91.54;97368.38;5092865;28;20047;-80
2021/01/29 04:34:28;;;;;;;2.05;0.50;;;;;;;7.41;91.95;97366.53;5093022;28;20056;-80
2021/01/29 04:36:59;;;;;;;1.60;0.63;;;;;;;7.36;91.47;97363.59;5093573;28;20052;-80
2021/01/29 04:39:29;;;;;;;0.73;0.50;;;;;;;7.37;91.73;97349.88;5091832;28;20079;-79
2021/01/29 04:42:08;;;;;;;0.75;0.50;;;;;;;7.34;91.44;97346.75;5093209;28;20052;-80
2021/01/29 04:44:56;;;;;;;0.80;0.30;;;;;;;7.31;91.40;97334.47;5090378;28;20044;-80
2021/01/29 04:47:27;;;;;;;2.08;0.50;;;;;;;7.21;91.46;97318.72;5073098;28;20500;-80
2021/01/29 04:50:12;;;;;;;1.65;0.40;;;;;;;7.31;91.37;97329.06;5088727;28;20688;-79
2021/01/29 04:53:27;;;;;;;1.95;0.40;;;;;;;7.21;91.81;97321.41;5091822;28;20048;-80
2021/01/29 04:56:52;;;;;;;1.67;0.55;;;;;;;7.22;92.01;97301.44;5093021;28;20044;-80
2021/01/29 04:59:36;;;;;;;0.90;0.50;;;;;;;7.19;91.82;97287.50;5094016;28;20048;-80
2021/01/29 05:02:41;;;;;;;1.05;0.52;;;;;;;7.24;91.93;97287.69;5092996;28;20054;-80
2021/01/29 05:05:40;;;;;;;1.27;0.50;;;;;;;7.13;91.89;97282.94;5048916;28;20056;-81
2021/01/29 05:08:29;;;;;;;0.73;0.50;;;;;;;7.23;91.69;97286.88;5089979;28;20052;-81
2021/01/29 05:11:40;;;;;;;1.65;0.68;;;;;;;7.26;91.48;97281.06;5093440;28;20081;-81
2021/01/29 05:14:33;;;;;;;2.05;0.40;;;;;;;7.14;91.61;97265.72;5041922;28;20083;-82
2021/01/29 05:17:38;;;;;;;0.45;0.40;;;;;;;7.14;91.59;97265.72;5085902;28;20055;-81
2021/01/29 05:20:22;;;;;;;0.38;0.38;;;;;;;7.16;91.81;97259.03;5055221;28;20060;-87
2021/01/29 05:22:58;;;;;;;0.30;0.30;;;;;;;7.12;91.69;97252.41;5074355;28;20132;-87
2021/01/29 05:25:56;;;;;;;0.47;0.43;;;;;;;7.25;91.12;97243.44;5092775;28;20056;-87
2021/01/29 05:28:59;;;;;;;0.40;0.40;;;;;;;7.18;91.45;97238.06;5091502;28;20063;-87
2021/01/29 05:31:46;;;;;;;3.42;0.52;;;;;;;7.18;90.75;97226.38;5060756;28;20060;-86
2021/01/29 05:34:52;;;;;;;0.85;0.52;;;;;;;7.25;90.75;97228.03;5090103;28;20050;-87
2021/01/29 05:37:44;;;;;;;0.88;0.50;;;;;;;7.24;90.80;97239.91;5063088;28;20063;-87
2021/01/29 05:40:27;;;;;;;0.77;0.70;;;;;;;7.18;90.76;97211.03;5080675;28;20397;-88
2021/01/29 05:43:15;;;;;;;0.43;0.32;;;;;;;7.13;91.50;97213.50;5096973;28;20044;-87
2021/01/29 05:46:05;;;;;;;0.75;0.40;;;;;;;7.09;91.56;97205.00;5081501;28;20044;-87
2021/01/29 05:48:51;;;;;;;7.28;1.38;;;;;;;7.21;91.63;97199.78;5097269;28;20051;-87
2021/01/29 05:51:37;;;;;;;0.50;0.50;;;;;;;7.16;91.74;97185.25;5095884;28;20044;-87
2021/01/29 05:54:35;;;;;;;1.15;0.32;;;;;;;7.21;91.87;97196.25;5097161;28;20064;-87
2021/01/29 05:57:43;;;;;;;1.10;1.00;;;;;;;7.18;92.29;97200.22;5097130;28;20131;-86
2021/01/29 06:00:24;;;;;;;1.05;0.70;;;;;;;7.11;92.12;97172.38;5095858;28;20065;-87
2021/01/29 06:03:09;;;;;;;1.40;0.45;;;;;;;7.25;91.95;97186.66;5096605;28;20048;-88
2021/01/29 06:06:03;;;;;;;0.75;0.50;;;;;;;7.15;92.15;97197.94;5096827;28;20048;-88
2021/01/29 06:08:56;;;;;;;0.32;0.32;;;;;;;7.11;92.57;97183.19;5096009;28;20124;-88
2021/01/29 06:11:47;;;;;;;0.82;0.50;;;;;;;7.23;92.34;97205.81;5096564;28;20108;-88
2021/01/29 06:14:59;;;;;;;0.40;0.40;;;;;;;7.19;92.18;97225.34;5096394;28;20051;-88
2021/01/29 06:18:09;;;;;;;0.40;0.40;;;;;;;7.21;92.64;97234.06;5076413;28;20064;-88
2021/01/29 06:21:30;;;;;;;0.80;0.50;;;;;;;7.21;92.92;97216.00;5092721;28;20098;-89
2021/01/29 06:24:30;;;;;;;1.02;0.60;;;;;;;7.06;92.65;97216.25;5052231;28;20060;-88
2021/01/29 06:27:28;;;;;;;0.80;0.60;;;;;;;7.15;92.88;97248.44;5086647;28;20177;-88
2021/01/29 06:30:30;;;;;;;0.40;0.40;;;;;;;7.19;92.96;97266.72;5092956;28;20128;-88
2021/01/29 06:33:29;;;;;;;1.27;0.52;;;;;;;7.13;92.95;97232.44;5088892;28;20070;-88
2021/01/29 06:36:10;;;;;;;0.55;0.50;;;;;;;7.10;92.95;97249.06;5088237;28;20135;-88
2021/01/29 06:38:55;;;;;;;2.47;0.68;;;;;;;7.20;92.43;97264.88;5083070;28;20093;-86
2021/01/29 06:41:56;;;;;;;0.85;0.60;;;;;;;7.28;92.53;97253.00;5096010;28;20060;-87
2021/01/29 06:44:35;;;;;;;2.38;0.75;;;;;;;7.34;92.02;97266.50;5068428;28;20063;-87
2021/01/29 06:47:15;;;;;;;1.95;0.80;;;;;;;7.38;92.14;97277.72;5095832;28;20047;-87
2021/01/29 06:50:08;;;;;;;4.13;0.50;;;;;;;7.34;92.19;97260.25;5095238;28;20074;-87
2021/01/29 06:53:12;;;;;;;2.35;0.63;;;;;;;7.41;91.22;97248.38;5076042;28;20063;-87
2021/01/29 06:56:11;;;;;;;0.60;0.60;;;;;;;7.34;91.53;97231.34;5077929;28;20052;-87
2021/01/29 06:59:11;;;;;;;1.30;0.77;;;;;;;7.61;90.26;97261.03;5069626;28;20052;-87
2021/01/29 07:01:55;;;;;;;0.55;0.40;;;;;;;7.63;90.14;97264.34;5068743;28;20056;-86
2021/01/29 07:05:03;;;;;;;1.63;0.85;;;;;;;7.65;89.20;97262.25;5085404;28;20040;-86
2021/01/29 07:07:49;;;;;;;0.20;0.20;;;;;;;7.70;86.78;97262.44;5094889;28;20044;-85
2021/01/29 07:10:44;;;;;;;0.20;0.20;;;;;;;7.76;86.24;97256.19;5095358;28;20054;-87
2021/01/29 07:13:19;;;;;;;0.32;0.32;;;;;;;7.87;85.76;97260.09;5074745;28;20049;-87
2021/01/29 07:16:01;;;;;;;5.38;0.30;;;;;;;7.95;85.18;97262.56;5082460;28;20048;-87
2021/01/29 07:18:54;;;;;;;1.60;0.35;;;;;;;8.06;84.23;97292.72;5094330;28;20050;-85
2021/01/29 07:21:32;;;;;;;0.73;0.40;;;;;;;7.83;85.03;97264.28;5076416;28;20138;-87
2021/01/29 07:24:29;;;;;;;1.15;0.30;;;;;;;7.89;84.08;97284.22;5094885;28;20051;-86
2021/01/29 07:27:08;;;;;;;0.35;0.35;;;;;;;7.96;84.59;97285.88;5094601;28;20048;-85
2021/01/29 07:30:05;;;;;;;1.97;0.30;;;;;;;8.02;84.00;97291.47;5091007;28;20079;-86
2021/01/29 07:32:45;;;;;;;0.55;0.20;;;;;;;7.89;84.61;97297.75;5094900;28;20302;-87
2021/01/29 07:35:28;;;;;;;2.22;0.30;;;;;;;7.91;84.50;97291.09;5094084;28;20048;-87
2021/01/29 07:38:18;;;;;;;0.30;0.30;;;;;;;7.88;84.14;97293.41;5074436;28;20052;-87
2021/01/29 07:41:05;;;;;;;0.65;0.38;;;;;;;7.87;84.05;97294.44;5074530;28;20076;-87
2021/01/29 07:46:56;;;;;;;1.02;0.30;;;;;;;8.07;83.03;97305.19;5093192;28;20060;-87
2021/01/29 07:49:49;;;;;;;0.30;0.30;;;;;;;8.04;83.58;97303.75;5095016;28;20048;-86
2021/01/29 07:52:29;;;;;;;0.63;0.40;;;;;;;8.07;83.16;97314.16;5074079;28;20059;-88
2021/01/29 07:55:08;;;;;;;0.65;0.28;;;;;;;8.06;82.70;97306.25;5077331;28;20044;-87
2021/01/29 07:58:05;;;;;;;1.95;0.60;;;;;;;8.15;82.90;97332.84;5074010;28;20554;-86
2021/01/29 08:00:52;;;;;;;0.47;0.30;;;;;;;8.05;80.29;97281.03;5088265;28;20048;-85
2021/01/29 08:03:49;;;;;;;0.60;0.30;;;;;;;8.29;80.92;97325.47;5089364;28;20066;-86
2021/01/29 08:06:22;;;;;;;0.20;0.20;;;;;;;8.13;81.11;97310.59;5088994;28;20055;-86
2021/01/29 08:08:56;;;;;;;0.60;0.30;;;;;;;8.15;80.68;97299.53;5094106;28;20044;-86
2021/01/29 08:11:24;;;;;;;2.72;0.38;;;;;;;8.35;80.81;97337.34;5094127;28;20502;-86
2021/01/29 08:14:04;;;;;;;0.30;0.30;;;;;;;8.23;81.25;97315.53;5093242;28;20070;-86
2021/01/29 08:16:49;;;;;;;0.40;0.25;;;;;;;8.37;80.14;97329.84;5093788;28;20074;-85
2021/01/29 08:19:23;;;;;;;0.68;0.28;;;;;;;8.44;79.79;97321.72;5094660;28;20059;-86
2021/01/29 08:22:27;;;;;;;4.22;0.63;;;;;;;8.33;79.71;97310.47;5094240;28;20101;-88
2021/01/29 08:25:17;;;;;;;0.40;0.20;;;;;;;8.38;79.67;97301.69;5032278;28;20097;-86
2021/01/29 08:28:32;;;;;;;1.30;0.55;;;;;;;8.53;79.79;97319.59;5078927;28;20083;-86
2021/01/29 08:31:28;;;;;;;0.65;0.10;;;;;;;8.61;78.91;97330.16;5080115;28;20048;-87
2021/01/29 08:34:17;;;;;;;1.30;0.22;;;;;;;8.59;79.09;97318.72;5073480;28;20045;-90
2021/01/29 08:36:55;;;;;;;0.55;0.17;;;;;;;8.52;79.77;97301.66;5089585;28;20108;-86
2021/01/29 08:39:32;;;;;;;0.95;0.57;;;;;;;8.60;78.64;97312.25;5093881;28;20471;-85
2021/01/29 08:42:08;;;;;;;1.45;0.28;;;;;;;8.68;78.14;97301.16;5094020;28;20048;-86
2021/01/29 08:44:58;;;;;;;2.10;0.50;;;;;;;8.79;78.43;97316.72;5093154;28;20602;-84
2021/01/29 08:47:40;;;;;;;;;;;;;;;8.91;78.04;97327.66;5074464;28;20057;-85
2021/01/29 08:50:29;;;;;;;0.20;0.20;;;;;;;8.85;77.87;97323.97;5093924;28;20394;-85
2021/01/29 08:53:34;;;;;;;2.05;0.40;;;;;;;8.82;78.01;97320.84;5092115;28;20119;-84
2021/01/29 08:56:12;;;;;;;0.57;0.30;;;;;;;8.82;78.26;97323.56;5070891;28;20048;-85
2021/01/29 08:58:51;;;;;;;0.63;0.40;;;;;;;8.78;78.60;97344.03;5092498;28;20059;-86
2021/01/29 09:01:26;;;;;;;2.40;0.38;;;;;;;8.75;78.55;97322.78;5092996;28;20075;-85
2021/01/29 09:04:01;;;;;;;0.38;0.20;;;;;;;8.83;78.38;97333.34;5092850;28;20044;-85
2021/01/29 09:06:37;;;;;;;1.50;0.40;;;;;;;8.80;77.98;97329.19;5093471;28;20056;-84
2021/01/29 09:09:15;;;;;;;2.58;0.40;;;;;;;8.93;77.84;97352.69;5092468;28;20476;-83
2021/01/29 09:11:47;;;;;;;1.02;0.40;;;;;;;8.94;77.98;97345.38;5093296;28;20507;-84
2021/01/29 09:14:23;;;;;;;1.00;0.40;;;;;;;8.94;76.97;97348.09;5095163;28;20070;-86
2021/01/29 09:16:56;;;;;;;6.78;0.98;;;;;;;9.04;77.04;97367.41;5097648;28;20051;-84
2021/01/29 09:19:22;;;;;;;2.80;0.63;;;;;;;8.94;77.32;97367.06;5097608;28;20484;-84
2021/01/29 09:21:59;;;;;;;1.00;0.43;;;;;;;9.02;76.33;97374.94;5097470;28;20093;-84
2021/01/29 09:24:37;;;;;;;4.45;0.60;;;;;;;9.08;76.45;97365.94;5095832;28;20130;-84
2021/01/29 09:27:33;;;;;;;1.98;0.55;;;;;;;9.13;75.90;97365.25;5080311;28;20476;-85
2021/01/29 09:30:08;;;;;;;1.77;0.60;;;;;;;9.05;75.56;97358.22;5096872;28;20052;-86
2021/01/29 09:32:50;;;;;;;1.25;0.38;;;;;;;9.11;75.08;97384.47;5096746;28;20071;-82
2021/01/29 09:35:24;;;;;;;2.65;0.88;;;;;;;9.06;74.62;97373.44;5096797;28;20140;-85
2021/01/29 09:37:54;;;;;;;2.63;0.75;;;;;;;9.12;73.66;97372.59;5097129;28;20081;-83
2021/01/29 09:40:25;;;;;;;1.08;0.43;;;;;;;9.39;72.44;97388.63;5096470;28;20040;-85
2021/01/29 09:43:07;;;;;;;4.18;0.98;;;;;;;9.55;68.69;97370.97;5096429;28;20044;-85
2021/01/29 09:45:38;;;;;;;2.58;0.85;;;;;;;9.62;69.45;97369.03;5096342;28;20056;-86
2021/01/29 09:48:10;;;;;;;0.65;0.50;;;;;;;9.74;69.44;97366.44;5090746;28;20145;-85
2021/01/29 09:51:14;;;;;;;4.63;0.88;;;;;;;9.94;68.60;97401.50;5094261;28;20060;-84
2021/01/29 09:53:47;;;;;;;3.40;0.50;;;;;;;9.84;70.11;97415.56;5096665;28;20480;-84
2021/01/29 09:56:19;;;;;;;3.30;0.50;;;;;;;9.76;71.71;97415.06;5096185;28;20056;-86
2021/01/29 09:59:17;;;;;;;2.67;0.55;;;;;;;9.64;71.69;97401.38;5097023;28;20052;-86
2021/01/29 10:01:49;;;;;;;3.22;1.63;;;;;;;9.74;71.22;97424.25;5081963;28;20048;-82
2021/01/29 10:04:34;;;;;;;4.70;0.80;;;;;;;9.71;71.37;97411.13;5095260;28;20047;-83
2021/01/29 10:07:05;;;;;;;7.45;1.55;;;;;;;9.73;70.25;97424.47;5096021;28;20508;-86
2021/01/29 10:09:35;;;;;;;6.38;0.90;;;;;;;9.70;67.89;97431.16;5096116;28;20048;-84
2021/01/29 10:12:14;;;;;;;7.47;0.80;;;;;;;9.69;68.49;97434.91;5095989;28;20044;-84
2021/01/29 10:14:49;;;;;;;4.40;0.75;;;;;;;9.71;68.47;97437.41;5094922;28;20290;-84
2021/01/29 10:17:28;;;;;;;5.65;0.93;;;;;;;9.69;69.50;97429.47;5096141;28;20044;-83
2021/01/29 10:19:59;;;;;;;4.47;1.00;;;;;;;9.59;67.38;97431.88;5095460;28;20048;-84
2021/01/29 10:22:39;;;;;;;2.90;0.77;;;;;;;9.66;67.78;97448.09;5096428;28;20094;-84
2021/01/29 10:25:33;;;;;;;7.20;1.35;;;;;;;9.63;68.17;97413.28;5080433;28;20047;-85
2021/01/29 10:28:11;;;;;;;5.70;1.00;;;;;;;9.70;67.76;97422.19;5059042;28;20044;-85
2021/01/29 10:30:41;;;;;;;9.25;1.15;;;;;;;9.80;67.71;97427.09;5095900;28;20108;-85
2021/01/29 10:33:13;;;;;;;7.30;0.93;;;;;;;9.86;65.92;97428.91;5096155;28;20040;-86
2021/01/29 10:35:46;;;;;;;5.03;1.20;;;;;;;9.88;65.70;97430.38;5095258;28;20052;-83
2021/01/29 10:38:20;;;;;;;1.50;0.65;;;;;;;9.94;66.44;97444.94;5096241;28;20056;-86
2021/01/29 10:40:57;;;;;;;6.55;0.50;;;;;;;9.86;65.25;97440.63;5092419;28;20052;-83
2021/01/29 10:43:36;;;;;;;5.25;0.88;;;;;;;9.83;65.92;97430.22;5079984;28;20056;-85
2021/01/29 10:46:35;;;;;;;1.60;0.88;;;;;;;9.82;65.68;97452.97;5085337;28;20072;-85
2021/01/29 10:49:14;;;;;;;4.38;0.80;;;;;;;9.80;66.66;97457.81;5058638;28;20055;-85
2021/01/29 10:51:57;;;;;;;5.88;1.25;;;;;;;9.80;67.63;97463.22;5075809;28;20401;-85
2021/01/29 10:54:32;;;;;;;6.35;1.15;;;;;;;9.94;66.63;97471.25;5079857;28;20128;-86
2021/01/29 10:57:06;;;;;;;3.80;0.80;;;;;;;9.98;66.01;97440.72;5074881;28;20094;-86
2021/01/29 10:59:42;;;;;;;5.18;1.00;;;;;;;9.98;64.91;97453.47;5085105;28;20048;-85
2021/01/29 11:02:24;;;;;;;5.40;0.60;;;;;;;9.98;65.36;97440.72;5075703;28;20052;-86
2021/01/29 11:05:12;;;;;;;8.45;1.60;;;;;;;10.15;66.03;97457.28;5079781;28;20052;-85
2021/01/29 11:07:54;;;;;;;5.05;1.30;;;;;;;10.12;65.48;97448.72;5080039;28;20067;-85
2021/01/29 11:10:31;;;;;;;6.38;1.67;;;;;;;9.89;65.64;97432.03;5092974;28;20048;-85
2021/01/29 11:13:05;;;;;;;9.43;1.80;;;;;;;10.01;65.50;97456.56;5087742;28;20086;-82
2021/01/29 11:15:37;;;;;;;10.77;1.88;;;;;;;9.92;65.11;97447.88;5095033;28;20055;-86
2021/01/29 11:18:14;;;;;;;11.43;4.22;;;;;;;9.98;63.98;97457.03;5092917;28;20127;-84
2021/01/29 11:20:42;;;;;;;6.38;0.82;;;;;;;9.87;64.79;97449.59;5093181;28;20044;-84
2021/01/29 11:23:24;;;;;;;3.63;0.95;;;;;;;9.76;65.60;97451.16;5090589;28;20106;-82
2021/01/29 11:26:10;;;;;;;4.40;0.82;;;;;;;9.82;66.08;97468.44;5090410;28;20051;-84
2021/01/29 11:28:46;;;;;;;3.85;0.80;;;;;;;9.68;66.01;97462.25;5078968;28;20541;-85
2021/01/29 11:31:18;;;;;;;4.15;0.68;;;;;;;9.77;66.58;97477.25;5086847;28;20398;-86
2021/01/29 11:33:50;;;;;;;1.40;0.55;;;;;;;9.85;66.25;97473.44;5080448;28;20066;-84
2021/01/29 11:36:27;;;;;;;8.02;1.05;;;;;;;9.82;65.51;97452.16;5081737;28;20040;-84
2021/01/29 11:39:04;;;;;;;4.68;0.88;;;;;;;9.74;65.80;97447.84;5090116;28;20051;-83
2021/01/29 11:41:59;;;;;;;4.68;1.02;;;;;;;9.99;66.48;97461.38;5094430;28;20503;-83
2021/01/29 11:44:39;;;;;;;8.60;1.13;;;;;;;9.90;65.85;97452.69;5093259;28;20458;-84
2021/01/29 11:47:15;;;;;;;6.65;1.23;;;;;;;9.86;64.67;97435.19;5088520;28;20080;-84
2021/01/29 11:49:54;;;;;;;9.45;0.93;;;;;;;9.91;65.35;97446.22;5098001;28;20052;-84
2021/01/29 11:52:29;;;;;;;5.22;1.40;;;;;;;9.86;64.80;97450.63;5093676;28;20440;-83
2021/01/29 11:55:07;;;;;;;11.18;1.00;;;;;;;9.91;64.70;97475.25;5083856;28;20121;-83
2021/01/29 11:57:45;;;;;;;6.03;1.27;;;;;;;9.85;64.43;97487.81;5090571;28;20044;-83
2021/01/29 12:00:25;;;;;;;2.17;1.08;;;;;;;9.72;64.45;97452.63;5086419;28;20488;-85
2021/01/29 12:03:06;;;;;;;5.82;1.45;;;;;;;9.67;64.89;97476.91;5091865;28;20185;-84
2021/01/29 12:05:38;;;;;;;5.20;1.17;;;;;;;9.51;66.05;97476.38;5082256;28;20480;-85
2021/01/29 12:08:25;;;;;;;3.80;0.95;;;;;;;9.49;65.31;97472.22;5085021;28;20052;-80
2021/01/29 12:10:59;;;;;;;2.78;0.75;;;;;;;9.36;65.24;97465.84;5092613;28;20040;-80
2021/01/29 12:13:35;;;;;;;6.00;0.70;;;;;;;9.25;65.51;97444.03;5081254;28;20052;-80
2021/01/29 12:16:03;;;;;;;8.85;1.35;;;;;;;9.29;66.74;97451.50;5092163;28;20487;-81
2021/01/29 12:18:33;;;;;;;6.82;0.95;;;;;;;9.25;66.76;97430.47;5082729;28;20067;-80
2021/01/29 12:21:16;;;;;;;3.08;0.80;;;;;;;9.21;67.23;97458.03;5090791;28;20051;-81
2021/01/29 12:23:49;;;;;;;4.03;1.00;;;;;;;9.16;68.19;97448.88;5093321;28;20131;-82
2021/01/29 12:26:27;;;;;;;4.53;1.23;;;;;;;9.12;67.14;97459.31;5081892;28;20051;-82
2021/01/29 12:29:22;;;;;;;6.97;1.50;;;;;;;9.00;68.79;97455.63;5092965;28;20075;-81
2021/01/29 12:32:04;;;;;;;4.85;1.40;;;;;;;8.92;68.31;97454.00;5087229;28;20040;-81
2021/01/29 12:34:43;;;;;;;8.05;1.15;;;;;;;9.02;69.01;97475.22;5089183;28;20052;-80
2021/01/29 12:37:17;;;;;;;4.55;1.25;;;;;;;8.86;69.51;97447.56;5072985;28;20047;-81
2021/01/29 12:39:48;;;;;;;5.65;0.88;;;;;;;8.88;69.28;97450.03;5074144;28;20071;-81
2021/01/29 12:42:20;;;;;;;3.85;1.17;;;;;;;8.90;68.99;97428.16;5091552;28;20048;-81
2021/01/29 12:44:53;;;;;;;4.70;1.25;;;;;;;8.91;68.48;97424.41;5083957;28;20048;-80